sensor_id;sensor_type;location;lat;lon;timestamp;P1;durP1;ratioP1;P2;durP2;ratioP2
35919;SDS011;36160;53.370;-6.196;2023-05-10T00:00:50;10.32;;;2.40;;
35919;SDS011;36160;53.370;-6.196;2023-05-10T00:03:16;15.70;;;2.42;;
35919;SDS011;36160;53.370;-6.196;2023-05-10T00:05:42;16.58;;;2.92;;
35919;SDS011;36160;53.370;-6.196;2023-05-10T00:08:07;11.80;;;2.40;;
35919;SDS011;36160;53.370;-6.196;2023-05-10T00:10:33;15.13;;;2.88;;
35919;SDS011;36160;53.370;-6.196;2023-05-10T00:12:59;10.60;;;2.42;;
35919;SDS011;36160;53.370;-6.196;2023-05-10T00:15:25;12.48;;;2.40;;
35919;SDS011;36160;53.370;-6.196;2023-05-10T00:17:50;11.90;;;2.35;;
35919;SDS011;36160;53.370;-6.196;2023-05-10T00:20:16;9.60;;;2.30;;
35919;SDS011;36160;53.370;-6.196;2023-05-10T00:22:42;6.78;;;1.85;;
35919;SDS011;36160;53.370;-6.196;2023-05-10T00:25:07;7.00;;;2.05;;
35919;SDS011;36160;53.370;-6.196;2023-05-10T00:27:34;9.65;;;1.80;;
35919;SDS011;36160;53.370;-6.196;2023-05-10T00:29:59;9.65;;;2.50;;
35919;SDS011;36160;53.370;-6.196;2023-05-10T00:32:25;13.80;;;2.67;;
35919;SDS011;36160;53.370;-6.196;2023-05-10T00:34:51;13.02;;;2.70;;
35919;SDS011;36160;53.370;-6.196;2023-05-10T00:37:16;11.55;;;2.35;;
35919;SDS011;36160;53.370;-6.196;2023-05-10T00:39:42;8.38;;;1.65;;
35919;SDS011;36160;53.370;-6.196;2023-05-10T00:42:08;20.38;;;2.45;;
35919;SDS011;36160;53.370;-6.196;2023-05-10T00:44:33;8.07;;;1.83;;
35919;SDS011;36160;53.370;-6.196;2023-05-10T00:46:59;13.23;;;2.30;;
35919;SDS011;36160;53.370;-6.196;2023-05-10T00:49:25;10.05;;;1.70;;
35919;SDS011;36160;53.370;-6.196;2023-05-10T00:51:51;9.43;;;2.42;;
35919;SDS011;36160;53.370;-6.196;2023-05-10T00:54:17;8.48;;;3.28;;
35919;SDS011;36160;53.370;-6.196;2023-05-10T00:56:42;7.07;;;1.80;;
35919;SDS011;36160;53.370;-6.196;2023-05-10T00:59:14;14.90;;;3.58;;
35919;SDS011;36160;53.370;-6.196;2023-05-10T01:01:46;9.02;;;1.90;;
35919;SDS011;36160;53.370;-6.196;2023-05-10T01:04:12;19.10;;;4.65;;
35919;SDS011;36160;53.370;-6.196;2023-05-10T01:06:42;11.73;;;2.25;;
35919;SDS011;36160;53.370;-6.196;2023-05-10T01:09:08;6.72;;;2.00;;
35919;SDS011;36160;53.370;-6.196;2023-05-10T01:11:38;6.30;;;1.90;;
35919;SDS011;36160;53.370;-6.196;2023-05-10T01:14:04;9.23;;;2.05;;
35919;SDS011;36160;53.370;-6.196;2023-05-10T01:16:38;5.10;;;1.60;;
35919;SDS011;36160;53.370;-6.196;2023-05-10T01:19:27;13.50;;;4.18;;
35919;SDS011;36160;53.370;-6.196;2023-05-10T01:24:51;9.43;;;2.88;;
35919;SDS011;36160;53.370;-6.196;2023-05-10T01:33:16;8.23;;;2.35;;
35919;SDS011;36160;53.370;-6.196;2023-05-10T01:35:51;11.33;;;2.20;;
35919;SDS011;36160;53.370;-6.196;2023-05-10T01:38:39;11.25;;;2.75;;
35919;SDS011;36160;53.370;-6.196;2023-05-10T01:41:18;6.63;;;1.80;;
35919;SDS011;36160;53.370;-6.196;2023-05-10T01:43:51;8.10;;;3.22;;
35919;SDS011;36160;53.370;-6.196;2023-05-10T01:46:31;14.13;;;2.58;;
35919;SDS011;36160;53.370;-6.196;2023-05-10T01:49:00;7.22;;;2.20;;
35919;SDS011;36160;53.370;-6.196;2023-05-10T01:51:31;9.68;;;1.98;;
35919;SDS011;36160;53.370;-6.196;2023-05-10T01:54:03;6.25;;;1.70;;
35919;SDS011;36160;53.370;-6.196;2023-05-10T01:56:32;8.13;;;1.80;;
35919;SDS011;36160;53.370;-6.196;2023-05-10T01:59:00;7.43;;;2.15;;
35919;SDS011;36160;53.370;-6.196;2023-05-10T02:01:31;8.00;;;1.83;;
35919;SDS011;36160;53.370;-6.196;2023-05-10T02:03:58;5.90;;;2.03;;
35919;SDS011;36160;53.370;-6.196;2023-05-10T02:06:25;10.18;;;1.67;;
35919;SDS011;36160;53.370;-6.196;2023-05-10T02:08:52;15.10;;;2.67;;
35919;SDS011;36160;53.370;-6.196;2023-05-10T02:11:18;3.88;;;1.42;;
35919;SDS011;36160;53.370;-6.196;2023-05-10T02:13:47;10.80;;;2.65;;
35919;SDS011;36160;53.370;-6.196;2023-05-10T02:16:15;7.47;;;1.70;;
35919;SDS011;36160;53.370;-6.196;2023-05-10T02:18:43;8.20;;;1.75;;
35919;SDS011;36160;53.370;-6.196;2023-05-10T02:21:10;8.60;;;1.58;;
35919;SDS011;36160;53.370;-6.196;2023-05-10T02:23:36;7.88;;;2.25;;
35919;SDS011;36160;53.370;-6.196;2023-05-10T02:26:03;8.20;;;1.92;;
35919;SDS011;36160;53.370;-6.196;2023-05-10T02:28:30;13.40;;;2.72;;
35919;SDS011;36160;53.370;-6.196;2023-05-10T02:30:58;5.68;;;1.55;;
35919;SDS011;36160;53.370;-6.196;2023-05-10T02:33:24;5.40;;;1.65;;
35919;SDS011;36160;53.370;-6.196;2023-05-10T02:35:50;4.78;;;1.42;;
35919;SDS011;36160;53.370;-6.196;2023-05-10T02:38:17;7.82;;;1.73;;
35919;SDS011;36160;53.370;-6.196;2023-05-10T02:40:45;6.13;;;2.03;;
35919;SDS011;36160;53.370;-6.196;2023-05-10T02:43:13;13.32;;;2.10;;
35919;SDS011;36160;53.370;-6.196;2023-05-10T02:45:41;6.10;;;1.95;;
35919;SDS011;36160;53.370;-6.196;2023-05-10T02:48:08;8.98;;;1.98;;
35919;SDS011;36160;53.370;-6.196;2023-05-10T02:50:34;8.55;;;2.25;;
35919;SDS011;36160;53.370;-6.196;2023-05-10T02:53:03;6.15;;;2.53;;
35919;SDS011;36160;53.370;-6.196;2023-05-10T02:55:36;9.95;;;2.00;;
35919;SDS011;36160;53.370;-6.196;2023-05-10T02:58:04;10.52;;;2.22;;
35919;SDS011;36160;53.370;-6.196;2023-05-10T03:00:30;6.32;;;1.83;;
35919;SDS011;36160;53.370;-6.196;2023-05-10T03:02:56;13.70;;;2.70;;
35919;SDS011;36160;53.370;-6.196;2023-05-10T03:05:22;12.98;;;2.53;;
35919;SDS011;36160;53.370;-6.196;2023-05-10T03:07:48;7.10;;;2.10;;
35919;SDS011;36160;53.370;-6.196;2023-05-10T03:10:15;7.20;;;2.00;;
35919;SDS011;36160;53.370;-6.196;2023-05-10T03:18:07;9.98;;;2.28;;
35919;SDS011;36160;53.370;-6.196;2023-05-10T03:20:41;7.90;;;2.33;;
35919;SDS011;36160;53.370;-6.196;2023-05-10T03:25:37;14.70;;;2.92;;
35919;SDS011;36160;53.370;-6.196;2023-05-10T03:28:04;9.45;;;1.88;;
35919;SDS011;36160;53.370;-6.196;2023-05-10T03:30:31;7.47;;;2.67;;
35919;SDS011;36160;53.370;-6.196;2023-05-10T03:32:57;8.73;;;2.50;;
35919;SDS011;36160;53.370;-6.196;2023-05-10T03:35:23;8.68;;;1.90;;
35919;SDS011;36160;53.370;-6.196;2023-05-10T03:37:49;7.55;;;1.75;;
35919;SDS011;36160;53.370;-6.196;2023-05-10T03:40:14;9.07;;;2.28;;
35919;SDS011;36160;53.370;-6.196;2023-05-10T03:42:40;8.05;;;1.80;;
35919;SDS011;36160;53.370;-6.196;2023-05-10T03:45:08;3.78;;;1.85;;
35919;SDS011;36160;53.370;-6.196;2023-05-10T03:47:34;11.00;;;2.00;;
35919;SDS011;36160;53.370;-6.196;2023-05-10T03:50:00;11.77;;;2.53;;
35919;SDS011;36160;53.370;-6.196;2023-05-10T03:52:26;10.02;;;2.78;;
35919;SDS011;36160;53.370;-6.196;2023-05-10T03:54:52;8.23;;;2.03;;
35919;SDS011;36160;53.370;-6.196;2023-05-10T03:57:18;9.63;;;2.00;;
35919;SDS011;36160;53.370;-6.196;2023-05-10T03:59:43;5.80;;;1.52;;
35919;SDS011;36160;53.370;-6.196;2023-05-10T04:02:09;9.38;;;1.70;;
35919;SDS011;36160;53.370;-6.196;2023-05-10T04:04:35;6.68;;;1.85;;
35919;SDS011;36160;53.370;-6.196;2023-05-10T04:07:02;8.40;;;2.13;;
35919;SDS011;36160;53.370;-6.196;2023-05-10T04:09:28;17.92;;;4.43;;
35919;SDS011;36160;53.370;-6.196;2023-05-10T04:11:54;10.13;;;1.75;;
35919;SDS011;36160;53.370;-6.196;2023-05-10T04:14:19;12.52;;;2.15;;
35919;SDS011;36160;53.370;-6.196;2023-05-10T04:16:45;9.85;;;3.35;;
35919;SDS011;36160;53.370;-6.196;2023-05-10T04:19:11;13.13;;;2.47;;
35919;SDS011;36160;53.370;-6.196;2023-05-10T04:21:36;12.93;;;2.70;;
35919;SDS011;36160;53.370;-6.196;2023-05-10T04:24:02;6.38;;;1.85;;
35919;SDS011;36160;53.370;-6.196;2023-05-10T04:26:28;7.50;;;1.85;;
35919;SDS011;36160;53.370;-6.196;2023-05-10T04:28:54;14.13;;;2.60;;
35919;SDS011;36160;53.370;-6.196;2023-05-10T04:31:19;5.35;;;2.05;;
35919;SDS011;36160;53.370;-6.196;2023-05-10T04:33:45;6.63;;;1.65;;
35919;SDS011;36160;53.370;-6.196;2023-05-10T04:36:11;12.63;;;2.35;;
35919;SDS011;36160;53.370;-6.196;2023-05-10T04:38:36;11.23;;;3.08;;
35919;SDS011;36160;53.370;-6.196;2023-05-10T04:41:08;12.95;;;2.28;;
35919;SDS011;36160;53.370;-6.196;2023-05-10T04:43:35;11.73;;;2.13;;
35919;SDS011;36160;53.370;-6.196;2023-05-10T04:46:02;12.15;;;1.83;;
35919;SDS011;36160;53.370;-6.196;2023-05-10T04:48:28;8.18;;;1.90;;
35919;SDS011;36160;53.370;-6.196;2023-05-10T04:50:54;8.82;;;3.42;;
35919;SDS011;36160;53.370;-6.196;2023-05-10T04:53:20;13.32;;;2.13;;
35919;SDS011;36160;53.370;-6.196;2023-05-10T04:55:45;11.30;;;2.97;;
35919;SDS011;36160;53.370;-6.196;2023-05-10T04:58:11;7.65;;;1.90;;
35919;SDS011;36160;53.370;-6.196;2023-05-10T05:00:37;10.02;;;1.70;;
35919;SDS011;36160;53.370;-6.196;2023-05-10T05:03:03;11.02;;;2.60;;
35919;SDS011;36160;53.370;-6.196;2023-05-10T05:05:28;15.93;;;2.42;;
35919;SDS011;36160;53.370;-6.196;2023-05-10T05:07:54;7.22;;;1.67;;
35919;SDS011;36160;53.370;-6.196;2023-05-10T05:10:20;5.72;;;2.05;;
35919;SDS011;36160;53.370;-6.196;2023-05-10T05:12:45;12.35;;;1.92;;
35919;SDS011;36160;53.370;-6.196;2023-05-10T05:15:11;13.95;;;1.95;;
35919;SDS011;36160;53.370;-6.196;2023-05-10T05:17:37;6.75;;;1.60;;
35919;SDS011;36160;53.370;-6.196;2023-05-10T05:20:03;12.63;;;1.75;;
35919;SDS011;36160;53.370;-6.196;2023-05-10T05:22:29;5.25;;;1.20;;
35919;SDS011;36160;53.370;-6.196;2023-05-10T05:24:55;7.82;;;2.40;;
35919;SDS011;36160;53.370;-6.196;2023-05-10T05:27:21;29.55;;;3.65;;
35919;SDS011;36160;53.370;-6.196;2023-05-10T05:29:49;10.68;;;2.28;;
35919;SDS011;36160;53.370;-6.196;2023-05-10T05:32:16;12.07;;;3.35;;
35919;SDS011;36160;53.370;-6.196;2023-05-10T05:34:41;7.57;;;2.22;;
35919;SDS011;36160;53.370;-6.196;2023-05-10T05:37:12;6.18;;;1.73;;
35919;SDS011;36160;53.370;-6.196;2023-05-10T05:39:41;9.70;;;2.10;;
35919;SDS011;36160;53.370;-6.196;2023-05-10T05:42:09;8.65;;;1.85;;
35919;SDS011;36160;53.370;-6.196;2023-05-10T05:44:35;11.18;;;2.92;;
35919;SDS011;36160;53.370;-6.196;2023-05-10T05:47:01;5.97;;;2.05;;
35919;SDS011;36160;53.370;-6.196;2023-05-10T05:49:27;4.03;;;1.65;;
35919;SDS011;36160;53.370;-6.196;2023-05-10T05:51:53;9.73;;;2.00;;
35919;SDS011;36160;53.370;-6.196;2023-05-10T05:54:19;7.65;;;1.98;;
35919;SDS011;36160;53.370;-6.196;2023-05-10T05:56:45;6.93;;;1.23;;
35919;SDS011;36160;53.370;-6.196;2023-05-10T05:59:11;8.15;;;2.33;;
35919;SDS011;36160;53.370;-6.196;2023-05-10T06:01:37;11.43;;;2.90;;
35919;SDS011;36160;53.370;-6.196;2023-05-10T06:04:02;4.88;;;1.85;;
35919;SDS011;36160;53.370;-6.196;2023-05-10T06:06:28;5.95;;;1.48;;
35919;SDS011;36160;53.370;-6.196;2023-05-10T06:08:54;8.82;;;1.27;;
35919;SDS011;36160;53.370;-6.196;2023-05-10T06:11:20;6.50;;;1.75;;
35919;SDS011;36160;53.370;-6.196;2023-05-10T06:13:46;8.00;;;2.20;;
35919;SDS011;36160;53.370;-6.196;2023-05-10T06:16:12;6.35;;;1.38;;
35919;SDS011;36160;53.370;-6.196;2023-05-10T06:18:38;4.50;;;1.45;;
35919;SDS011;36160;53.370;-6.196;2023-05-10T06:21:04;6.93;;;1.60;;
35919;SDS011;36160;53.370;-6.196;2023-05-10T06:23:30;4.85;;;1.10;;
35919;SDS011;36160;53.370;-6.196;2023-05-10T06:25:55;4.38;;;1.38;;
35919;SDS011;36160;53.370;-6.196;2023-05-10T06:28:21;7.90;;;1.63;;
35919;SDS011;36160;53.370;-6.196;2023-05-10T06:30:47;7.32;;;1.98;;
35919;SDS011;36160;53.370;-6.196;2023-05-10T06:33:12;5.15;;;1.30;;
35919;SDS011;36160;53.370;-6.196;2023-05-10T06:35:38;12.90;;;1.60;;
35919;SDS011;36160;53.370;-6.196;2023-05-10T06:38:04;7.47;;;2.03;;
35919;SDS011;36160;53.370;-6.196;2023-05-10T06:40:30;3.20;;;1.00;;
35919;SDS011;36160;53.370;-6.196;2023-05-10T06:42:56;6.85;;;2.00;;
35919;SDS011;36160;53.370;-6.196;2023-05-10T06:45:22;5.10;;;1.98;;
35919;SDS011;36160;53.370;-6.196;2023-05-10T06:47:47;5.78;;;1.63;;
35919;SDS011;36160;53.370;-6.196;2023-05-10T06:50:13;7.30;;;1.73;;
35919;SDS011;36160;53.370;-6.196;2023-05-10T06:52:39;11.35;;;1.23;;
35919;SDS011;36160;53.370;-6.196;2023-05-10T06:55:04;6.88;;;1.67;;
35919;SDS011;36160;53.370;-6.196;2023-05-10T06:57:31;11.70;;;2.03;;
35919;SDS011;36160;53.370;-6.196;2023-05-10T06:59:57;4.40;;;1.65;;
35919;SDS011;36160;53.370;-6.196;2023-05-10T07:02:23;5.90;;;1.13;;
35919;SDS011;36160;53.370;-6.196;2023-05-10T07:04:49;9.82;;;1.55;;
35919;SDS011;36160;53.370;-6.196;2023-05-10T07:07:16;3.78;;;1.35;;
35919;SDS011;36160;53.370;-6.196;2023-05-10T07:09:42;2.45;;;1.25;;
35919;SDS011;36160;53.370;-6.196;2023-05-10T07:12:08;3.17;;;1.08;;
35919;SDS011;36160;53.370;-6.196;2023-05-10T07:14:33;2.78;;;0.75;;
35919;SDS011;36160;53.370;-6.196;2023-05-10T07:16:59;7.13;;;1.33;;
35919;SDS011;36160;53.370;-6.196;2023-05-10T07:19:24;9.07;;;1.30;;
35919;SDS011;36160;53.370;-6.196;2023-05-10T07:21:50;4.35;;;1.13;;
35919;SDS011;36160;53.370;-6.196;2023-05-10T07:24:16;5.05;;;0.95;;
35919;SDS011;36160;53.370;-6.196;2023-05-10T07:26:42;4.75;;;1.10;;
35919;SDS011;36160;53.370;-6.196;2023-05-10T07:29:08;7.43;;;1.60;;
35919;SDS011;36160;53.370;-6.196;2023-05-10T07:31:34;4.45;;;1.15;;
35919;SDS011;36160;53.370;-6.196;2023-05-10T07:34:00;4.22;;;1.00;;
35919;SDS011;36160;53.370;-6.196;2023-05-10T07:36:26;4.50;;;1.38;;
35919;SDS011;36160;53.370;-6.196;2023-05-10T07:38:52;2.35;;;0.73;;
35919;SDS011;36160;53.370;-6.196;2023-05-10T07:41:18;5.78;;;1.10;;
35919;SDS011;36160;53.370;-6.196;2023-05-10T07:43:44;3.30;;;1.48;;
35919;SDS011;36160;53.370;-6.196;2023-05-10T07:46:09;4.25;;;1.10;;
35919;SDS011;36160;53.370;-6.196;2023-05-10T07:48:36;4.43;;;1.20;;
35919;SDS011;36160;53.370;-6.196;2023-05-10T07:51:02;4.95;;;0.95;;
35919;SDS011;36160;53.370;-6.196;2023-05-10T07:53:28;2.70;;;0.88;;
35919;SDS011;36160;53.370;-6.196;2023-05-10T07:55:54;4.25;;;0.82;;
35919;SDS011;36160;53.370;-6.196;2023-05-10T07:58:23;2.75;;;0.88;;
35919;SDS011;36160;53.370;-6.196;2023-05-10T08:00:51;2.50;;;1.15;;
35919;SDS011;36160;53.370;-6.196;2023-05-10T08:03:17;1.58;;;0.77;;
35919;SDS011;36160;53.370;-6.196;2023-05-10T08:05:44;2.53;;;0.80;;
35919;SDS011;36160;53.370;-6.196;2023-05-10T08:08:10;1.95;;;0.60;;
35919;SDS011;36160;53.370;-6.196;2023-05-10T08:10:35;2.05;;;0.82;;
35919;SDS011;36160;53.370;-6.196;2023-05-10T08:13:01;5.03;;;0.77;;
35919;SDS011;36160;53.370;-6.196;2023-05-10T08:15:27;3.60;;;0.95;;
35919;SDS011;36160;53.370;-6.196;2023-05-10T08:17:53;5.53;;;0.80;;
35919;SDS011;36160;53.370;-6.196;2023-05-10T08:20:19;1.58;;;0.60;;
35919;SDS011;36160;53.370;-6.196;2023-05-10T08:22:45;4.00;;;0.80;;
35919;SDS011;36160;53.370;-6.196;2023-05-10T08:25:11;2.55;;;0.80;;
35919;SDS011;36160;53.370;-6.196;2023-05-10T08:27:37;1.60;;;0.82;;
35919;SDS011;36160;53.370;-6.196;2023-05-10T08:30:02;0.95;;;0.82;;
35919;SDS011;36160;53.370;-6.196;2023-05-10T08:32:28;1.95;;;0.80;;
35919;SDS011;36160;53.370;-6.196;2023-05-10T08:34:54;3.83;;;1.05;;
35919;SDS011;36160;53.370;-6.196;2023-05-10T08:37:21;2.53;;;0.90;;
35919;SDS011;36160;53.370;-6.196;2023-05-10T08:39:47;2.38;;;0.95;;
35919;SDS011;36160;53.370;-6.196;2023-05-10T08:42:13;5.63;;;1.27;;
35919;SDS011;36160;53.370;-6.196;2023-05-10T08:44:43;2.72;;;0.65;;
35919;SDS011;36160;53.370;-6.196;2023-05-10T08:47:08;4.55;;;1.17;;
35919;SDS011;36160;53.370;-6.196;2023-05-10T08:49:35;2.72;;;1.00;;
35919;SDS011;36160;53.370;-6.196;2023-05-10T08:52:03;3.65;;;0.80;;
35919;SDS011;36160;53.370;-6.196;2023-05-10T08:54:33;4.30;;;0.90;;
35919;SDS011;36160;53.370;-6.196;2023-05-10T08:56:59;2.40;;;0.93;;
35919;SDS011;36160;53.370;-6.196;2023-05-10T08:59:25;5.05;;;0.85;;
35919;SDS011;36160;53.370;-6.196;2023-05-10T09:01:51;2.42;;;1.15;;
35919;SDS011;36160;53.370;-6.196;2023-05-10T09:04:19;4.70;;;1.17;;
35919;SDS011;36160;53.370;-6.196;2023-05-10T09:06:45;2.25;;;0.80;;
35919;SDS011;36160;53.370;-6.196;2023-05-10T09:09:11;3.55;;;1.25;;
35919;SDS011;36160;53.370;-6.196;2023-05-10T09:11:37;2.00;;;0.90;;
35919;SDS011;36160;53.370;-6.196;2023-05-10T09:14:03;1.95;;;0.70;;
35919;SDS011;36160;53.370;-6.196;2023-05-10T09:16:29;5.47;;;1.25;;
35919;SDS011;36160;53.370;-6.196;2023-05-10T09:18:55;2.90;;;1.00;;
35919;SDS011;36160;53.370;-6.196;2023-05-10T09:21:21;4.03;;;1.00;;
35919;SDS011;36160;53.370;-6.196;2023-05-10T09:23:47;4.53;;;1.00;;
35919;SDS011;36160;53.370;-6.196;2023-05-10T09:26:14;5.78;;;1.10;;
35919;SDS011;36160;53.370;-6.196;2023-05-10T09:28:50;5.05;;;1.25;;
35919;SDS011;36160;53.370;-6.196;2023-05-10T09:31:20;2.53;;;1.00;;
35919;SDS011;36160;53.370;-6.196;2023-05-10T09:33:49;4.25;;;0.80;;
35919;SDS011;36160;53.370;-6.196;2023-05-10T09:36:15;1.90;;;0.80;;
35919;SDS011;36160;53.370;-6.196;2023-05-10T09:38:51;5.53;;;1.83;;
35919;SDS011;36160;53.370;-6.196;2023-05-10T09:41:23;2.08;;;0.98;;
35919;SDS011;36160;53.370;-6.196;2023-05-10T09:43:50;3.25;;;1.08;;
35919;SDS011;36160;53.370;-6.196;2023-05-10T09:46:20;1.38;;;0.70;;
35919;SDS011;36160;53.370;-6.196;2023-05-10T09:48:53;3.88;;;0.80;;
35919;SDS011;36160;53.370;-6.196;2023-05-10T09:51:24;4.57;;;0.63;;
35919;SDS011;36160;53.370;-6.196;2023-05-10T09:56:42;8.43;;;1.07;;
35919;SDS011;36160;53.370;-6.196;2023-05-10T09:59:10;2.58;;;1.02;;
35919;SDS011;36160;53.370;-6.196;2023-05-10T10:01:37;3.15;;;0.73;;
35919;SDS011;36160;53.370;-6.196;2023-05-10T10:04:08;5.15;;;0.95;;
35919;SDS011;36160;53.370;-6.196;2023-05-10T10:06:35;2.33;;;0.90;;
35919;SDS011;36160;53.370;-6.196;2023-05-10T10:09:07;2.47;;;1.05;;
35919;SDS011;36160;53.370;-6.196;2023-05-10T10:11:37;3.45;;;1.10;;
35919;SDS011;36160;53.370;-6.196;2023-05-10T10:14:04;2.97;;;1.30;;
35919;SDS011;36160;53.370;-6.196;2023-05-10T10:16:30;8.30;;;1.17;;
35919;SDS011;36160;53.370;-6.196;2023-05-10T10:18:57;2.90;;;1.05;;
35919;SDS011;36160;53.370;-6.196;2023-05-10T10:21:23;3.38;;;1.20;;
35919;SDS011;36160;53.370;-6.196;2023-05-10T10:23:49;2.00;;;1.23;;
35919;SDS011;36160;53.370;-6.196;2023-05-10T10:26:15;1.55;;;0.50;;
35919;SDS011;36160;53.370;-6.196;2023-05-10T10:34:08;2.95;;;0.93;;
35919;SDS011;36160;53.370;-6.196;2023-05-10T10:36:45;1.75;;;0.70;;
35919;SDS011;36160;53.370;-6.196;2023-05-10T10:39:12;1.85;;;0.70;;
35919;SDS011;36160;53.370;-6.196;2023-05-10T10:41:39;1.70;;;0.60;;
35919;SDS011;36160;53.370;-6.196;2023-05-10T10:55:05;2.20;;;1.00;;
35919;SDS011;36160;53.370;-6.196;2023-05-10T11:05:40;1.75;;;0.75;;
35919;SDS011;36160;53.370;-6.196;2023-05-10T11:10:48;0.50;;;0.50;;
35919;SDS011;36160;53.370;-6.196;2023-05-10T11:13:26;2.38;;;0.60;;
35919;SDS011;36160;53.370;-6.196;2023-05-10T11:15:54;2.15;;;0.65;;
35919;SDS011;36160;53.370;-6.196;2023-05-10T11:18:28;3.28;;;0.63;;
35919;SDS011;36160;53.370;-6.196;2023-05-10T11:20:59;1.70;;;0.73;;
35919;SDS011;36160;53.370;-6.196;2023-05-10T11:23:33;1.90;;;1.00;;
35919;SDS011;36160;53.370;-6.196;2023-05-10T11:26:12;1.33;;;0.82;;
35919;SDS011;36160;53.370;-6.196;2023-05-10T11:28:42;0.70;;;0.52;;
35919;SDS011;36160;53.370;-6.196;2023-05-10T11:31:08;1.15;;;0.55;;
35919;SDS011;36160;53.370;-6.196;2023-05-10T11:33:44;1.08;;;0.65;;
35919;SDS011;36160;53.370;-6.196;2023-05-10T11:36:16;1.45;;;0.82;;
35919;SDS011;36160;53.370;-6.196;2023-05-10T11:38:43;0.50;;;0.50;;
35919;SDS011;36160;53.370;-6.196;2023-05-10T11:41:09;0.80;;;0.68;;
35919;SDS011;36160;53.370;-6.196;2023-05-10T11:43:36;1.70;;;0.68;;
35919;SDS011;36160;53.370;-6.196;2023-05-10T11:46:04;2.22;;;0.75;;
35919;SDS011;36160;53.370;-6.196;2023-05-10T11:48:31;2.50;;;0.88;;
35919;SDS011;36160;53.370;-6.196;2023-05-10T11:50:57;3.63;;;0.80;;
35919;SDS011;36160;53.370;-6.196;2023-05-10T11:53:23;1.20;;;0.70;;
35919;SDS011;36160;53.370;-6.196;2023-05-10T11:55:51;1.60;;;0.88;;
35919;SDS011;36160;53.370;-6.196;2023-05-10T11:58:17;1.60;;;0.80;;
35919;SDS011;36160;53.370;-6.196;2023-05-10T12:00:44;2.13;;;1.00;;
35919;SDS011;36160;53.370;-6.196;2023-05-10T12:03:11;1.52;;;0.80;;
35919;SDS011;36160;53.370;-6.196;2023-05-10T12:05:36;0.82;;;0.55;;
35919;SDS011;36160;53.370;-6.196;2023-05-10T12:08:12;2.45;;;0.90;;
35919;SDS011;36160;53.370;-6.196;2023-05-10T12:10:39;3.75;;;0.60;;
35919;SDS011;36160;53.370;-6.196;2023-05-10T12:13:04;2.72;;;0.80;;
35919;SDS011;36160;53.370;-6.196;2023-05-10T12:15:32;3.65;;;1.00;;
35919;SDS011;36160;53.370;-6.196;2023-05-10T12:17:57;1.05;;;0.60;;
35919;SDS011;36160;53.370;-6.196;2023-05-10T12:20:23;1.48;;;1.08;;
35919;SDS011;36160;53.370;-6.196;2023-05-10T12:22:53;1.92;;;0.80;;
35919;SDS011;36160;53.370;-6.196;2023-05-10T12:25:22;1.13;;;0.70;;
35919;SDS011;36160;53.370;-6.196;2023-05-10T12:27:49;1.77;;;1.20;;
35919;SDS011;36160;53.370;-6.196;2023-05-10T12:30:30;2.75;;;0.90;;
35919;SDS011;36160;53.370;-6.196;2023-05-10T12:33:13;2.38;;;1.13;;
35919;SDS011;36160;53.370;-6.196;2023-05-10T12:35:46;2.45;;;0.98;;
35919;SDS011;36160;53.370;-6.196;2023-05-10T12:38:25;2.95;;;1.17;;
35919;SDS011;36160;53.370;-6.196;2023-05-10T12:41:02;0.50;;;0.50;;
35919;SDS011;36160;53.370;-6.196;2023-05-10T12:43:31;2.15;;;0.88;;
35919;SDS011;36160;53.370;-6.196;2023-05-10T12:45:57;3.60;;;0.95;;
35919;SDS011;36160;53.370;-6.196;2023-05-10T12:48:23;1.33;;;0.70;;
35919;SDS011;36160;53.370;-6.196;2023-05-10T12:50:49;3.70;;;0.73;;
35919;SDS011;36160;53.370;-6.196;2023-05-10T12:53:15;5.15;;;1.65;;
35919;SDS011;36160;53.370;-6.196;2023-05-10T12:55:41;2.40;;;1.00;;
35919;SDS011;36160;53.370;-6.196;2023-05-10T12:58:07;1.25;;;0.88;;
35919;SDS011;36160;53.370;-6.196;2023-05-10T13:00:33;0.50;;;0.50;;
35919;SDS011;36160;53.370;-6.196;2023-05-10T13:02:59;5.05;;;0.77;;
35919;SDS011;36160;53.370;-6.196;2023-05-10T13:05:25;1.08;;;0.52;;
35919;SDS011;36160;53.370;-6.196;2023-05-10T13:07:50;1.42;;;0.60;;
35919;SDS011;36160;53.370;-6.196;2023-05-10T13:10:16;3.03;;;0.75;;
35919;SDS011;36160;53.370;-6.196;2023-05-10T13:12:43;1.08;;;0.75;;
35919;SDS011;36160;53.370;-6.196;2023-05-10T13:15:09;1.48;;;0.65;;
35919;SDS011;36160;53.370;-6.196;2023-05-10T13:17:34;3.00;;;1.02;;
35919;SDS011;36160;53.370;-6.196;2023-05-10T13:20:00;3.63;;;0.98;;
35919;SDS011;36160;53.370;-6.196;2023-05-10T13:22:27;0.60;;;0.52;;
35919;SDS011;36160;53.370;-6.196;2023-05-10T13:24:55;2.65;;;0.70;;
35919;SDS011;36160;53.370;-6.196;2023-05-10T13:27:21;2.65;;;0.60;;
35919;SDS011;36160;53.370;-6.196;2023-05-10T13:29:46;0.98;;;0.88;;
35919;SDS011;36160;53.370;-6.196;2023-05-10T13:32:13;2.05;;;1.10;;
35919;SDS011;36160;53.370;-6.196;2023-05-10T13:34:39;1.17;;;1.00;;
35919;SDS011;36160;53.370;-6.196;2023-05-10T13:37:05;1.77;;;0.70;;
35919;SDS011;36160;53.370;-6.196;2023-05-10T13:39:34;4.25;;;0.70;;
35919;SDS011;36160;53.370;-6.196;2023-05-10T13:42:00;2.88;;;0.88;;
35919;SDS011;36160;53.370;-6.196;2023-05-10T13:44:25;1.83;;;0.82;;
35919;SDS011;36160;53.370;-6.196;2023-05-10T13:46:51;1.73;;;0.75;;
35919;SDS011;36160;53.370;-6.196;2023-05-10T13:49:17;1.38;;;0.70;;
35919;SDS011;36160;53.370;-6.196;2023-05-10T13:51:43;1.25;;;0.75;;
35919;SDS011;36160;53.370;-6.196;2023-05-10T13:54:09;2.28;;;1.15;;
35919;SDS011;36160;53.370;-6.196;2023-05-10T13:56:35;7.03;;;1.20;;
35919;SDS011;36160;53.370;-6.196;2023-05-10T13:59:00;2.63;;;0.80;;
35919;SDS011;36160;53.370;-6.196;2023-05-10T14:01:26;2.47;;;0.90;;
35919;SDS011;36160;53.370;-6.196;2023-05-10T14:03:52;4.47;;;1.35;;
35919;SDS011;36160;53.370;-6.196;2023-05-10T14:06:18;1.70;;;0.88;;
35919;SDS011;36160;53.370;-6.196;2023-05-10T14:08:43;3.97;;;1.20;;
35919;SDS011;36160;53.370;-6.196;2023-05-10T14:11:09;2.00;;;0.95;;
35919;SDS011;36160;53.370;-6.196;2023-05-10T14:13:36;0.77;;;0.50;;
35919;SDS011;36160;53.370;-6.196;2023-05-10T14:16:04;3.42;;;0.80;;
35919;SDS011;36160;53.370;-6.196;2023-05-10T14:18:30;4.53;;;0.70;;
35919;SDS011;36160;53.370;-6.196;2023-05-10T14:20:55;1.27;;;0.50;;
35919;SDS011;36160;53.370;-6.196;2023-05-10T14:23:22;0.80;;;0.60;;
35919;SDS011;36160;53.370;-6.196;2023-05-10T14:25:52;1.10;;;0.50;;
35919;SDS011;36160;53.370;-6.196;2023-05-10T14:28:18;2.92;;;1.20;;
35919;SDS011;36160;53.370;-6.196;2023-05-10T14:30:45;2.47;;;0.80;;
35919;SDS011;36160;53.370;-6.196;2023-05-10T14:33:11;2.13;;;1.13;;
35919;SDS011;36160;53.370;-6.196;2023-05-10T14:35:37;2.47;;;0.82;;
35919;SDS011;36160;53.370;-6.196;2023-05-10T14:38:02;3.58;;;1.40;;
35919;SDS011;36160;53.370;-6.196;2023-05-10T14:40:29;3.47;;;1.15;;
35919;SDS011;36160;53.370;-6.196;2023-05-10T14:42:55;3.30;;;1.33;;
35919;SDS011;36160;53.370;-6.196;2023-05-10T14:45:21;1.77;;;1.10;;
35919;SDS011;36160;53.370;-6.196;2023-05-10T14:47:48;4.95;;;1.23;;
35919;SDS011;36160;53.370;-6.196;2023-05-10T14:50:14;1.95;;;1.33;;
35919;SDS011;36160;53.370;-6.196;2023-05-10T14:52:41;3.47;;;1.45;;
35919;SDS011;36160;53.370;-6.196;2023-05-10T14:55:07;3.10;;;0.98;;
35919;SDS011;36160;53.370;-6.196;2023-05-10T14:57:33;2.88;;;0.98;;
35919;SDS011;36160;53.370;-6.196;2023-05-10T14:59:58;1.60;;;0.65;;
35919;SDS011;36160;53.370;-6.196;2023-05-10T15:02:24;2.92;;;0.95;;
35919;SDS011;36160;53.370;-6.196;2023-05-10T15:04:50;2.25;;;0.90;;
35919;SDS011;36160;53.370;-6.196;2023-05-10T15:07:16;2.97;;;1.10;;
35919;SDS011;36160;53.370;-6.196;2023-05-10T15:09:43;2.72;;;0.90;;
35919;SDS011;36160;53.370;-6.196;2023-05-10T15:12:09;1.00;;;0.70;;
35919;SDS011;36160;53.370;-6.196;2023-05-10T15:14:35;4.20;;;1.25;;
35919;SDS011;36160;53.370;-6.196;2023-05-10T15:17:01;2.65;;;0.95;;
35919;SDS011;36160;53.370;-6.196;2023-05-10T15:19:27;5.40;;;1.27;;